sensor_id;sensor_type;location;lat;lon;timestamp;P1;durP1;ratioP1;P2;durP2;ratioP2
34242;SDS011;20504;43.214;27.920;2023-08-06T00:00:01;26.27;;;15.65;;
34242;SDS011;20504;43.214;27.920;2023-08-06T00:02:28;21.88;;;14.75;;
34242;SDS011;20504;43.214;27.920;2023-08-06T00:04:53;22.63;;;15.97;;
34242;SDS011;20504;43.214;27.920;2023-08-06T00:07:18;20.23;;;15.20;;
34242;SDS011;20504;43.214;27.920;2023-08-06T00:09:44;22.67;;;14.57;;
34242;SDS011;20504;43.214;27.920;2023-08-06T00:12:09;20.97;;;14.17;;
34242;SDS011;20504;43.214;27.920;2023-08-06T00:14:35;20.10;;;14.17;;
34242;SDS011;20504;43.214;27.920;2023-08-06T00:17:00;20.73;;;14.07;;
34242;SDS011;20504;43.214;27.920;2023-08-06T00:19:26;23.93;;;15.17;;
34242;SDS011;20504;43.214;27.920;2023-08-06T00:21:51;30.33;;;15.20;;
34242;SDS011;20504;43.214;27.920;2023-08-06T00:24:16;18.57;;;14.17;;
34242;SDS011;20504;43.214;27.920;2023-08-06T00:26:42;24.90;;;14.47;;
34242;SDS011;20504;43.214;27.920;2023-08-06T00:29:07;19.13;;;13.83;;
34242;SDS011;20504;43.214;27.920;2023-08-06T00:31:33;23.53;;;14.33;;
34242;SDS011;20504;43.214;27.920;2023-08-06T00:33:58;23.80;;;14.47;;
34242;SDS011;20504;43.214;27.920;2023-08-06T00:36:24;23.43;;;14.90;;
34242;SDS011;20504;43.214;27.920;2023-08-06T00:38:49;22.67;;;14.67;;
34242;SDS011;20504;43.214;27.920;2023-08-06T00:41:15;18.63;;;13.73;;
34242;SDS011;20504;43.214;27.920;2023-08-06T00:43:40;25.27;;;15.00;;
34242;SDS011;20504;43.214;27.920;2023-08-06T00:46:06;18.07;;;15.03;;
34242;SDS011;20504;43.214;27.920;2023-08-06T00:48:31;20.95;;;14.68;;
34242;SDS011;20504;43.214;27.920;2023-08-06T00:50:57;20.60;;;13.90;;
34242;SDS011;20504;43.214;27.920;2023-08-06T00:53:23;20.33;;;14.50;;
34242;SDS011;20504;43.214;27.920;2023-08-06T00:55:49;20.55;;;13.57;;
34242;SDS011;20504;43.214;27.920;2023-08-06T00:58:16;21.98;;;13.93;;
34242;SDS011;20504;43.214;27.920;2023-08-06T01:00:41;21.87;;;13.23;;
34242;SDS011;20504;43.214;27.920;2023-08-06T01:03:07;24.30;;;13.77;;
34242;SDS011;20504;43.214;27.920;2023-08-06T01:05:33;20.85;;;13.82;;
34242;SDS011;20504;43.214;27.920;2023-08-06T01:13:52;20.17;;;13.45;;
34242;SDS011;20504;43.214;27.920;2023-08-06T01:16:23;20.70;;;13.55;;
34242;SDS011;20504;43.214;27.920;2023-08-06T01:18:49;20.70;;;14.38;;
34242;SDS011;20504;43.214;27.920;2023-08-06T01:21:15;15.35;;;13.65;;
34242;SDS011;20504;43.214;27.920;2023-08-06T01:26:13;18.58;;;13.95;;
34242;SDS011;20504;43.214;27.920;2023-08-06T01:31:22;18.70;;;14.25;;
34242;SDS011;20504;43.214;27.920;2023-08-06T01:33:54;18.50;;;14.55;;
34242;SDS011;20504;43.214;27.920;2023-08-06T01:36:23;22.30;;;14.32;;
34242;SDS011;20504;43.214;27.920;2023-08-06T01:38:48;18.17;;;13.65;;
34242;SDS011;20504;43.214;27.920;2023-08-06T01:41:17;24.02;;;15.45;;
34242;SDS011;20504;43.214;27.920;2023-08-06T01:43:42;29.17;;;16.53;;
34242;SDS011;20504;43.214;27.920;2023-08-06T01:46:08;23.27;;;16.20;;
34242;SDS011;20504;43.214;27.920;2023-08-06T01:48:33;22.43;;;15.57;;
34242;SDS011;20504;43.214;27.920;2023-08-06T01:50:58;22.23;;;15.13;;
34242;SDS011;20504;43.214;27.920;2023-08-06T01:53:24;31.13;;;14.60;;
34242;SDS011;20504;43.214;27.920;2023-08-06T01:55:49;23.63;;;14.80;;
34242;SDS011;20504;43.214;27.920;2023-08-06T01:58:15;24.23;;;14.70;;
34242;SDS011;20504;43.214;27.920;2023-08-06T02:00:41;21.80;;;14.90;;
34242;SDS011;20504;43.214;27.920;2023-08-06T02:03:06;22.48;;;14.57;;
34242;SDS011;20504;43.214;27.920;2023-08-06T02:05:32;22.47;;;14.27;;
34242;SDS011;20504;43.214;27.920;2023-08-06T02:07:57;22.77;;;14.63;;
34242;SDS011;20504;43.214;27.920;2023-08-06T02:10:23;18.25;;;14.02;;
34242;SDS011;20504;43.214;27.920;2023-08-06T02:12:49;23.53;;;14.67;;
34242;SDS011;20504;43.214;27.920;2023-08-06T02:15:14;21.27;;;15.03;;
34242;SDS011;20504;43.214;27.920;2023-08-06T02:17:40;20.37;;;14.50;;
34242;SDS011;20504;43.214;27.920;2023-08-06T02:20:05;20.33;;;14.10;;
34242;SDS011;20504;43.214;27.920;2023-08-06T02:22:31;29.63;;;16.50;;
34242;SDS011;20504;43.214;27.920;2023-08-06T02:24:57;22.50;;;14.90;;
34242;SDS011;20504;43.214;27.920;2023-08-06T02:27:22;22.63;;;14.70;;
34242;SDS011;20504;43.214;27.920;2023-08-06T02:29:48;22.00;;;14.73;;
34242;SDS011;20504;43.214;27.920;2023-08-06T02:32:13;20.67;;;14.23;;
34242;SDS011;20504;43.214;27.920;2023-08-06T02:34:39;19.13;;;14.37;;
34242;SDS011;20504;43.214;27.920;2023-08-06T02:37:04;15.70;;;13.37;;
34242;SDS011;20504;43.214;27.920;2023-08-06T02:39:30;17.00;;;13.73;;
34242;SDS011;20504;43.214;27.920;2023-08-06T02:41:55;23.20;;;14.13;;
34242;SDS011;20504;43.214;27.920;2023-08-06T02:44:20;24.37;;;14.63;;
34242;SDS011;20504;43.214;27.920;2023-08-06T02:46:46;18.80;;;14.23;;
34242;SDS011;20504;43.214;27.920;2023-08-06T02:49:11;21.00;;;14.37;;
34242;SDS011;20504;43.214;27.920;2023-08-06T02:51:37;18.93;;;14.57;;
34242;SDS011;20504;43.214;27.920;2023-08-06T02:54:02;17.10;;;14.70;;
34242;SDS011;20504;43.214;27.920;2023-08-06T02:56:28;21.63;;;15.17;;
34242;SDS011;20504;43.214;27.920;2023-08-06T02:58:53;19.33;;;14.80;;
34242;SDS011;20504;43.214;27.920;2023-08-06T03:01:19;21.33;;;15.17;;
34242;SDS011;20504;43.214;27.920;2023-08-06T03:03:44;18.77;;;15.30;;
34242;SDS011;20504;43.214;27.920;2023-08-06T03:06:10;22.07;;;14.83;;
34242;SDS011;20504;43.214;27.920;2023-08-06T03:08:35;22.57;;;14.10;;
34242;SDS011;20504;43.214;27.920;2023-08-06T03:11:01;18.83;;;15.13;;
34242;SDS011;20504;43.214;27.920;2023-08-06T03:13:26;23.10;;;15.13;;
34242;SDS011;20504;43.214;27.920;2023-08-06T03:15:56;16.33;;;13.30;;
34242;SDS011;20504;43.214;27.920;2023-08-06T03:18:23;16.63;;;12.70;;
34242;SDS011;20504;43.214;27.920;2023-08-06T03:20:50;17.80;;;14.00;;
34242;SDS011;20504;43.214;27.920;2023-08-06T03:23:16;20.13;;;14.03;;
34242;SDS011;20504;43.214;27.920;2023-08-06T03:25:42;18.95;;;13.43;;
34242;SDS011;20504;43.214;27.920;2023-08-06T03:28:08;19.57;;;13.70;;
34242;SDS011;20504;43.214;27.920;2023-08-06T03:30:33;16.97;;;13.20;;
34242;SDS011;20504;43.214;27.920;2023-08-06T03:32:58;19.87;;;12.83;;
34242;SDS011;20504;43.214;27.920;2023-08-06T03:35:24;20.93;;;13.90;;
34242;SDS011;20504;43.214;27.920;2023-08-06T03:37:49;23.47;;;15.53;;
34242;SDS011;20504;43.214;27.920;2023-08-06T03:40:15;32.13;;;17.50;;
34242;SDS011;20504;43.214;27.920;2023-08-06T03:42:41;20.85;;;15.80;;
34242;SDS011;20504;43.214;27.920;2023-08-06T03:45:06;24.20;;;16.83;;
34242;SDS011;20504;43.214;27.920;2023-08-06T03:47:32;24.67;;;17.13;;
34242;SDS011;20504;43.214;27.920;2023-08-06T03:49:58;31.17;;;16.95;;
34242;SDS011;20504;43.214;27.920;2023-08-06T03:52:23;23.00;;;16.23;;
34242;SDS011;20504;43.214;27.920;2023-08-06T03:54:49;20.17;;;15.53;;
34242;SDS011;20504;43.214;27.920;2023-08-06T03:57:14;25.60;;;16.63;;
34242;SDS011;20504;43.214;27.920;2023-08-06T03:59:40;20.90;;;15.88;;
34242;SDS011;20504;43.214;27.920;2023-08-06T04:02:06;21.97;;;15.37;;
34242;SDS011;20504;43.214;27.920;2023-08-06T04:04:31;22.37;;;16.00;;
34242;SDS011;20504;43.214;27.920;2023-08-06T04:06:57;18.70;;;15.70;;
34242;SDS011;20504;43.214;27.920;2023-08-06T04:09:22;23.43;;;15.87;;
34242;SDS011;20504;43.214;27.920;2023-08-06T04:11:48;23.20;;;15.67;;
34242;SDS011;20504;43.214;27.920;2023-08-06T04:14:13;18.50;;;14.70;;
34242;SDS011;20504;43.214;27.920;2023-08-06T04:16:39;21.87;;;14.47;;
34242;SDS011;20504;43.214;27.920;2023-08-06T04:19:04;23.00;;;14.33;;
34242;SDS011;20504;43.214;27.920;2023-08-06T04:21:30;23.37;;;15.87;;
34242;SDS011;20504;43.214;27.920;2023-08-06T04:23:55;19.23;;;14.50;;
34242;SDS011;20504;43.214;27.920;2023-08-06T04:26:21;24.15;;;13.95;;
34242;SDS011;20504;43.214;27.920;2023-08-06T04:28:47;20.07;;;14.17;;
34242;SDS011;20504;43.214;27.920;2023-08-06T04:31:13;21.38;;;14.43;;
34242;SDS011;20504;43.214;27.920;2023-08-06T04:33:39;23.67;;;15.15;;
34242;SDS011;20504;43.214;27.920;2023-08-06T04:36:06;22.10;;;13.73;;
34242;SDS011;20504;43.214;27.920;2023-08-06T04:38:31;20.02;;;14.38;;
34242;SDS011;20504;43.214;27.920;2023-08-06T04:40:57;19.77;;;12.23;;
34242;SDS011;20504;43.214;27.920;2023-08-06T04:43:23;22.42;;;12.32;;
34242;SDS011;20504;43.214;27.920;2023-08-06T04:45:49;17.02;;;12.55;;
34242;SDS011;20504;43.214;27.920;2023-08-06T04:48:16;17.83;;;13.07;;
34242;SDS011;20504;43.214;27.920;2023-08-06T04:50:45;19.83;;;12.57;;
34242;SDS011;20504;43.214;27.920;2023-08-06T04:53:11;16.75;;;11.50;;
34242;SDS011;20504;43.214;27.920;2023-08-06T04:55:37;17.75;;;12.60;;
34242;SDS011;20504;43.214;27.920;2023-08-06T04:58:03;17.13;;;11.00;;
34242;SDS011;20504;43.214;27.920;2023-08-06T05:00:28;20.50;;;12.03;;
34242;SDS011;20504;43.214;27.920;2023-08-06T05:02:54;16.23;;;11.27;;
34242;SDS011;20504;43.214;27.920;2023-08-06T05:05:19;19.57;;;11.37;;
34242;SDS011;20504;43.214;27.920;2023-08-06T05:07:47;15.53;;;10.47;;
34242;SDS011;20504;43.214;27.920;2023-08-06T05:10:14;28.55;;;11.55;;
34242;SDS011;20504;43.214;27.920;2023-08-06T05:12:40;14.90;;;10.93;;
34242;SDS011;20504;43.214;27.920;2023-08-06T05:15:05;16.90;;;11.43;;
34242;SDS011;20504;43.214;27.920;2023-08-06T05:17:31;17.85;;;11.35;;
34242;SDS011;20504;43.214;27.920;2023-08-06T05:19:57;18.50;;;11.27;;
34242;SDS011;20504;43.214;27.920;2023-08-06T05:22:22;20.87;;;12.23;;
34242;SDS011;20504;43.214;27.920;2023-08-06T05:24:48;21.70;;;12.53;;
34242;SDS011;20504;43.214;27.920;2023-08-06T05:27:13;15.17;;;10.80;;
34242;SDS011;20504;43.214;27.920;2023-08-06T05:29:39;18.20;;;12.53;;
34242;SDS011;20504;43.214;27.920;2023-08-06T05:32:04;15.80;;;11.30;;
34242;SDS011;20504;43.214;27.920;2023-08-06T05:34:30;20.27;;;11.10;;
34242;SDS011;20504;43.214;27.920;2023-08-06T05:36:55;20.20;;;11.40;;
34242;SDS011;20504;43.214;27.920;2023-08-06T05:39:21;10.50;;;9.40;;
34242;SDS011;20504;43.214;27.920;2023-08-06T05:41:46;17.27;;;10.63;;
34242;SDS011;20504;43.214;27.920;2023-08-06T05:44:12;19.93;;;10.27;;
34242;SDS011;20504;43.214;27.920;2023-08-06T05:46:37;21.23;;;11.20;;
34242;SDS011;20504;43.214;27.920;2023-08-06T05:49:02;16.27;;;9.40;;
34242;SDS011;20504;43.214;27.920;2023-08-06T05:51:28;14.63;;;9.60;;
34242;SDS011;20504;43.214;27.920;2023-08-06T05:53:54;21.70;;;10.03;;
34242;SDS011;20504;43.214;27.920;2023-08-06T05:56:19;12.60;;;9.00;;
34242;SDS011;20504;43.214;27.920;2023-08-06T05:58:45;23.13;;;10.17;;
34242;SDS011;20504;43.214;27.920;2023-08-06T06:01:12;18.88;;;9.32;;
34242;SDS011;20504;43.214;27.920;2023-08-06T06:03:38;14.65;;;8.52;;
34242;SDS011;20504;43.214;27.920;2023-08-06T06:06:03;17.75;;;9.50;;
34242;SDS011;20504;43.214;27.920;2023-08-06T06:08:29;13.80;;;9.57;;
34242;SDS011;20504;43.214;27.920;2023-08-06T06:10:54;16.13;;;10.30;;
34242;SDS011;20504;43.214;27.920;2023-08-06T06:13:20;13.20;;;8.73;;
34242;SDS011;20504;43.214;27.920;2023-08-06T06:15:48;10.13;;;8.27;;
34242;SDS011;20504;43.214;27.920;2023-08-06T06:18:14;14.82;;;9.45;;
34242;SDS011;20504;43.214;27.920;2023-08-06T06:20:39;11.87;;;8.43;;
34242;SDS011;20504;43.214;27.920;2023-08-06T06:23:05;12.57;;;8.60;;
34242;SDS011;20504;43.214;27.920;2023-08-06T06:25:30;14.50;;;9.50;;
34242;SDS011;20504;43.214;27.920;2023-08-06T06:27:56;15.53;;;9.67;;
34242;SDS011;20504;43.214;27.920;2023-08-06T06:30:21;15.13;;;9.37;;
34242;SDS011;20504;43.214;27.920;2023-08-06T06:32:47;13.93;;;9.63;;
34242;SDS011;20504;43.214;27.920;2023-08-06T06:35:12;13.67;;;9.90;;
34242;SDS011;20504;43.214;27.920;2023-08-06T06:37:38;14.60;;;9.23;;
34242;SDS011;20504;43.214;27.920;2023-08-06T06:40:03;13.40;;;8.57;;
34242;SDS011;20504;43.214;27.920;2023-08-06T06:42:29;14.48;;;8.70;;
34242;SDS011;20504;43.214;27.920;2023-08-06T06:44:55;15.67;;;9.07;;
34242;SDS011;20504;43.214;27.920;2023-08-06T06:47:20;15.10;;;9.30;;
34242;SDS011;20504;43.214;27.920;2023-08-06T06:49:46;17.13;;;8.47;;
34242;SDS011;20504;43.214;27.920;2023-08-06T06:52:11;16.23;;;8.53;;
34242;SDS011;20504;43.214;27.920;2023-08-06T06:54:37;12.53;;;7.93;;
34242;SDS011;20504;43.214;27.920;2023-08-06T06:57:02;17.20;;;9.73;;
34242;SDS011;20504;43.214;27.920;2023-08-06T06:59:28;13.50;;;8.75;;
34242;SDS011;20504;43.214;27.920;2023-08-06T07:01:53;13.83;;;8.50;;
34242;SDS011;20504;43.214;27.920;2023-08-06T07:04:19;13.20;;;8.50;;
34242;SDS011;20504;43.214;27.920;2023-08-06T07:06:44;13.60;;;8.30;;
34242;SDS011;20504;43.214;27.920;2023-08-06T07:09:10;12.97;;;8.03;;
34242;SDS011;20504;43.214;27.920;2023-08-06T07:11:35;19.17;;;9.57;;
34242;SDS011;20504;43.214;27.920;2023-08-06T07:14:01;14.03;;;9.30;;
34242;SDS011;20504;43.214;27.920;2023-08-06T07:16:26;21.50;;;11.77;;
34242;SDS011;20504;43.214;27.920;2023-08-06T07:18:53;10.90;;;7.93;;
34242;SDS011;20504;43.214;27.920;2023-08-06T07:21:19;15.15;;;7.85;;
34242;SDS011;20504;43.214;27.920;2023-08-06T07:23:46;15.82;;;9.00;;
34242;SDS011;20504;43.214;27.920;2023-08-06T07:26:11;12.27;;;8.15;;
34242;SDS011;20504;43.214;27.920;2023-08-06T07:28:37;15.97;;;8.80;;
34242;SDS011;20504;43.214;27.920;2023-08-06T07:31:02;13.17;;;8.03;;
34242;SDS011;20504;43.214;27.920;2023-08-06T07:35:54;14.57;;;9.70;;
34242;SDS011;20504;43.214;27.920;2023-08-06T07:38:19;15.23;;;9.33;;
34242;SDS011;20504;43.214;27.920;2023-08-06T07:40:46;13.35;;;8.15;;
34242;SDS011;20504;43.214;27.920;2023-08-06T07:43:11;15.27;;;7.80;;
34242;SDS011;20504;43.214;27.920;2023-08-06T07:45:37;17.50;;;7.97;;
34242;SDS011;20504;43.214;27.920;2023-08-06T07:48:03;14.63;;;7.80;;
34242;SDS011;20504;43.214;27.920;2023-08-06T07:50:29;13.38;;;8.40;;
34242;SDS011;20504;43.214;27.920;2023-08-06T07:52:55;14.90;;;7.57;;
34242;SDS011;20504;43.214;27.920;2023-08-06T07:55:20;12.60;;;7.60;;
34242;SDS011;20504;43.214;27.920;2023-08-06T07:57:46;12.27;;;8.40;;
34242;SDS011;20504;43.214;27.920;2023-08-06T08:00:11;12.93;;;7.53;;
34242;SDS011;20504;43.214;27.920;2023-08-06T08:02:37;15.27;;;8.02;;
34242;SDS011;20504;43.214;27.920;2023-08-06T08:05:02;11.07;;;7.07;;
34242;SDS011;20504;43.214;27.920;2023-08-06T08:07:28;13.93;;;7.45;;
34242;SDS011;20504;43.214;27.920;2023-08-06T08:09:55;15.38;;;8.27;;
34242;SDS011;20504;43.214;27.920;2023-08-06T08:12:21;13.15;;;6.97;;
34242;SDS011;20504;43.214;27.920;2023-08-06T08:14:47;10.15;;;6.82;;
34242;SDS011;20504;43.214;27.920;2023-08-06T08:17:12;13.50;;;7.23;;
34242;SDS011;20504;43.214;27.920;2023-08-06T08:19:39;13.73;;;6.83;;
34242;SDS011;20504;43.214;27.920;2023-08-06T08:22:05;13.05;;;7.00;;
34242;SDS011;20504;43.214;27.920;2023-08-06T08:24:31;12.40;;;6.20;;
34242;SDS011;20504;43.214;27.920;2023-08-06T08:26:56;10.90;;;6.85;;
34242;SDS011;20504;43.214;27.920;2023-08-06T08:29:22;12.60;;;7.10;;
34242;SDS011;20504;43.214;27.920;2023-08-06T08:31:48;10.70;;;7.03;;
34242;SDS011;20504;43.214;27.920;2023-08-06T08:34:18;8.90;;;7.38;;
34242;SDS011;20504;43.214;27.920;2023-08-06T08:36:44;11.55;;;6.78;;
34242;SDS011;20504;43.214;27.920;2023-08-06T08:39:12;15.30;;;7.47;;
34242;SDS011;20504;43.214;27.920;2023-08-06T08:41:38;12.50;;;7.13;;
34242;SDS011;20504;43.214;27.920;2023-08-06T08:44:04;11.65;;;7.05;;
34242;SDS011;20504;43.214;27.920;2023-08-06T08:46:35;10.88;;;6.43;;
34242;SDS011;20504;43.214;27.920;2023-08-06T08:49:01;11.20;;;6.90;;
34242;SDS011;20504;43.214;27.920;2023-08-06T08:51:27;13.23;;;8.05;;
34242;SDS011;20504;43.214;27.920;2023-08-06T08:58:47;16.83;;;7.63;;
34242;SDS011;20504;43.214;27.920;2023-08-06T09:03:39;12.80;;;6.97;;
34242;SDS011;20504;43.214;27.920;2023-08-06T09:06:06;11.82;;;6.75;;
34242;SDS011;20504;43.214;27.920;2023-08-06T09:08:36;12.68;;;7.35;;
34242;SDS011;20504;43.214;27.920;2023-08-06T09:11:08;11.23;;;6.97;;
34242;SDS011;20504;43.214;27.920;2023-08-06T09:13:36;14.05;;;7.00;;
34242;SDS011;20504;43.214;27.920;2023-08-06T09:16:02;13.75;;;6.95;;
34242;SDS011;20504;43.214;27.920;2023-08-06T09:18:29;10.30;;;6.20;;
34242;SDS011;20504;43.214;27.920;2023-08-06T09:20:55;10.77;;;6.05;;
34242;SDS011;20504;43.214;27.920;2023-08-06T09:23:27;17.58;;;7.63;;
34242;SDS011;20504;43.214;27.920;2023-08-06T09:25:55;12.73;;;6.90;;
34242;SDS011;20504;43.214;27.920;2023-08-06T09:30:47;9.35;;;6.40;;
34242;SDS011;20504;43.214;27.920;2023-08-06T09:33:17;12.18;;;7.00;;
34242;SDS011;20504;43.214;27.920;2023-08-06T09:35:45;11.40;;;6.40;;
34242;SDS011;20504;43.214;27.920;2023-08-06T09:38:11;9.00;;;5.97;;
34242;SDS011;20504;43.214;27.920;2023-08-06T09:40:37;9.98;;;6.55;;
34242;SDS011;20504;43.214;27.920;2023-08-06T09:45:30;10.90;;;6.50;;
34242;SDS011;20504;43.214;27.920;2023-08-06T09:47:58;12.57;;;6.93;;
34242;SDS011;20504;43.214;27.920;2023-08-06T09:50:26;12.73;;;5.90;;
34242;SDS011;20504;43.214;27.920;2023-08-06T09:52:55;12.15;;;6.47;;
34242;SDS011;20504;43.214;27.920;2023-08-06T09:55:22;10.80;;;6.40;;
34242;SDS011;20504;43.214;27.920;2023-08-06T09:57:49;9.93;;;6.60;;
34242;SDS011;20504;43.214;27.920;2023-08-06T10:02:42;11.07;;;6.45;;
34242;SDS011;20504;43.214;27.920;2023-08-06T10:05:09;11.20;;;6.13;;
34242;SDS011;20504;43.214;27.920;2023-08-06T10:07:35;9.45;;;5.82;;
34242;SDS011;20504;43.214;27.920;2023-08-06T10:10:02;13.88;;;6.45;;
34242;SDS011;20504;43.214;27.920;2023-08-06T10:12:29;11.13;;;6.50;;
34242;SDS011;20504;43.214;27.920;2023-08-06T10:14:59;9.98;;;5.88;;
34242;SDS011;20504;43.214;27.920;2023-08-06T10:17:32;9.68;;;6.13;;
34242;SDS011;20504;43.214;27.920;2023-08-06T10:19:59;10.25;;;5.85;;
34242;SDS011;20504;43.214;27.920;2023-08-06T10:22:25;9.80;;;6.57;;
34242;SDS011;20504;43.214;27.920;2023-08-06T10:24:57;11.23;;;6.55;;
34242;SDS011;20504;43.214;27.920;2023-08-06T10:27:33;9.27;;;6.57;;
34242;SDS011;20504;43.214;27.920;2023-08-06T10:30:28;9.85;;;6.00;;
34242;SDS011;20504;43.214;27.920;2023-08-06T10:32:58;10.23;;;5.93;;
34242;SDS011;20504;43.214;27.920;2023-08-06T10:35:34;9.30;;;6.03;;
34242;SDS011;20504;43.214;27.920;2023-08-06T10:40:48;8.98;;;5.70;;
34242;SDS011;20504;43.214;27.920;2023-08-06T10:43:25;14.02;;;6.13;;
34242;SDS011;20504;43.214;27.920;2023-08-06T10:45:58;7.90;;;5.68;;
34242;SDS011;20504;43.214;27.920;2023-08-06T10:48:28;14.55;;;5.90;;
34242;SDS011;20504;43.214;27.920;2023-08-06T10:51:10;10.10;;;6.82;;
34242;SDS011;20504;43.214;27.920;2023-08-06T10:53:38;9.10;;;6.28;;
34242;SDS011;20504;43.214;27.920;2023-08-06T10:56:13;10.27;;;6.03;;
34242;SDS011;20504;43.214;27.920;2023-08-06T10:58:43;13.70;;;6.15;;
34242;SDS011;20504;43.214;27.920;2023-08-06T11:01:10;8.68;;;5.90;;
34242;SDS011;20504;43.214;27.920;2023-08-06T11:03:42;9.45;;;5.88;;
34242;SDS011;20504;43.214;27.920;2023-08-06T11:06:09;9.40;;;5.78;;
34242;SDS011;20504;43.214;27.920;2023-08-06T11:11:11;16.40;;;6.45;;
34242;SDS011;20504;43.214;27.920;2023-08-06T11:13:39;12.55;;;6.05;;
34242;SDS011;20504;43.214;27.920;2023-08-06T11:19:15;9.57;;;5.68;;
34242;SDS011;20504;43.214;27.920;2023-08-06T11:21:41;11.43;;;6.68;;
34242;SDS011;20504;43.214;27.920;2023-08-06T11:24:10;11.75;;;5.60;;
34242;SDS011;20504;43.214;27.920;2023-08-06T11:26:40;10.77;;;5.85;;
34242;SDS011;20504;43.214;27.920;2023-08-06T11:29:05;8.32;;;5.75;;
34242;SDS011;20504;43.214;27.920;2023-08-06T11:31:31;10.90;;;5.90;;
34242;SDS011;20504;43.214;27.920;2023-08-06T11:33:58;7.55;;;5.55;;
34242;SDS011;20504;43.214;27.920;2023-08-06T11:36:30;7.57;;;5.35;;
34242;SDS011;20504;43.214;27.920;2023-08-06T11:39:06;10.63;;;5.43;;
34242;SDS011;20504;43.214;27.920;2023-08-06T11:41:32;10.25;;;5.45;;
34242;SDS011;20504;43.214;27.920;2023-08-06T11:46:27;10.27;;;6.45;;
34242;SDS011;20504;43.214;27.920;2023-08-06T11:48:56;8.50;;;6.50;;
34242;SDS011;20504;43.214;27.920;2023-08-06T11:51:27;10.35;;;6.22;;
34242;SDS011;20504;43.214;27.920;2023-08-06T11:53:59;10.88;;;7.32;;
34242;SDS011;20504;43.214;27.920;2023-08-06T11:56:25;12.07;;;7.25;;
34242;SDS011;20504;43.214;27.920;2023-08-06T11:58:52;10.23;;;7.03;;
34242;SDS011;20504;43.214;27.920;2023-08-06T12:01:17;14.80;;;7.22;;
34242;SDS011;20504;43.214;27.920;2023-08-06T12:03:43;10.98;;;7.07;;
34242;SDS011;20504;43.214;27.920;2023-08-06T12:06:09;14.18;;;7.60;;
34242;SDS011;20504;43.214;27.920;2023-08-06T12:08:34;14.88;;;8.25;;
34242;SDS011;20504;43.214;27.920;2023-08-06T12:11:00;9.80;;;5.78;;
34242;SDS011;20504;43.214;27.920;2023-08-06T12:13:26;7.20;;;3.90;;
34242;SDS011;20504;43.214;27.920;2023-08-06T12:16:10;14.60;;;3.87;;
34242;SDS011;20504;43.214;27.920;2023-08-06T12:18:35;16.40;;;4.43;;
34242;SDS011;20504;43.214;27.920;2023-08-06T12:21:01;14.43;;;4.23;;
34242;SDS011;20504;43.214;27.920;2023-08-06T12:23:27;6.72;;;3.95;;
34242;SDS011;20504;43.214;27.920;2023-08-06T12:25:52;5.43;;;3.70;;
34242;SDS011;20504;43.214;27.920;2023-08-06T12:28:18;9.90;;;4.03;;
34242;SDS011;20504;43.214;27.920;2023-08-06T12:30:43;7.37;;;4.03;;
34242;SDS011;20504;43.214;27.920;2023-08-06T12:33:10;7.10;;;4.00;;
34242;SDS011;20504;43.214;27.920;2023-08-06T12:35:35;9.53;;;4.77;;
34242;SDS011;20504;43.214;27.920;2023-08-06T12:38:02;6.88;;;4.72;;
34242;SDS011;20504;43.214;27.920;2023-08-06T12:40:27;7.03;;;4.27;;
34242;SDS011;20504;43.214;27.920;2023-08-06T12:42:53;7.27;;;4.83;;
34242;SDS011;20504;43.214;27.920;2023-08-06T12:45:18;9.50;;;5.93;;
34242;SDS011;20504;43.214;27.920;2023-08-06T12:47:46;8.48;;;5.47;;
34242;SDS011;20504;43.214;27.920;2023-08-06T12:50:12;11.18;;;5.57;;
34242;SDS011;20504;43.214;27.920;2023-08-06T12:52:37;11.67;;;5.13;;
34242;SDS011;20504;43.214;27.920;2023-08-06T12:55:03;9.07;;;5.60;;
34242;SDS011;20504;43.214;27.920;2023-08-06T12:57:29;10.40;;;5.47;;
34242;SDS011;20504;43.214;27.920;2023-08-06T12:59:54;9.20;;;5.05;;
34242;SDS011;20504;43.214;27.920;2023-08-06T13:02:20;13.87;;;5.50;;
34242;SDS011;20504;43.214;27.920;2023-08-06T13:04:46;9.43;;;5.60;;
34242;SDS011;20504;43.214;27.920;2023-08-06T13:07:12;8.18;;;4.43;;
34242;SDS011;20504;43.214;27.920;2023-08-06T13:09:38;9.25;;;5.45;;
34242;SDS011;20504;43.214;27.920;2023-08-06T13:12:03;8.65;;;4.63;;
34242;SDS011;20504;43.214;27.920;2023-08-06T13:14:31;7.97;;;4.35;;
34242;SDS011;20504;43.214;27.920;2023-08-06T13:19:22;8.32;;;4.40;;
34242;SDS011;20504;43.214;27.920;2023-08-06T13:24:14;8.57;;;3.85;;
34242;SDS011;20504;43.214;27.920;2023-08-06T13:26:40;7.38;;;3.78;;
34242;SDS011;20504;43.214;27.920;2023-08-06T13:29:06;4.28;;;3.53;;
34242;SDS011;20504;43.214;27.920;2023-08-06T13:31:32;17.77;;;3.88;;
34242;SDS011;20504;43.214;27.920;2023-08-06T13:33:59;4.20;;;3.63;;
34242;SDS011;20504;43.214;27.920;2023-08-06T13:36:25;5.82;;;4.18;;
34242;SDS011;20504;43.214;27.920;2023-08-06T13:38:51;5.60;;;3.35;;
34242;SDS011;20504;43.214;27.920;2023-08-06T13:41:17;5.63;;;3.55;;
34242;SDS011;20504;43.214;27.920;2023-08-06T13:43:42;4.47;;;3.42;;
34242;SDS011;20504;43.214;27.920;2023-08-06T13:46:09;6.75;;;3.50;;
34242;SDS011;20504;43.214;27.920;2023-08-06T13:48:39;7.05;;;3.75;;
34242;SDS011;20504;43.214;27.920;2023-08-06T13:51:05;6.35;;;3.45;;
34242;SDS011;20504;43.214;27.920;2023-08-06T13:53:30;5.22;;;3.10;;
34242;SDS011;20504;43.214;27.920;2023-08-06T13:55:56;3.78;;;2.95;;
34242;SDS011;20504;43.214;27.920;2023-08-06T13:58:24;5.95;;;3.08;;
34242;SDS011;20504;43.214;27.920;2023-08-06T14:00:51;5.88;;;3.40;;
34242;SDS011;20504;43.214;27.920;2023-08-06T14:03:19;3.83;;;3.38;;
34242;SDS011;20504;43.214;27.920;2023-08-06T14:05:45;8.40;;;3.83;;
34242;SDS011;20504;43.214;27.920;2023-08-06T14:08:10;6.03;;;3.78;;
34242;SDS011;20504;43.214;27.920;2023-08-06T14:10:36;7.63;;;3.30;;
34242;SDS011;20504;43.214;27.920;2023-08-06T14:13:02;15.93;;;4.22;;
34242;SDS011;20504;43.214;27.920;2023-08-06T14:15:28;6.97;;;4.03;;
34242;SDS011;20504;43.214;27.920;2023-08-06T14:17:53;5.60;;;3.72;;
34242;SDS011;20504;43.214;27.920;2023-08-06T14:20:19;5.82;;;3.85;;
34242;SDS011;20504;43.214;27.920;2023-08-06T14:22:44;4.40;;;3.17;;
34242;SDS011;20504;43.214;27.920;2023-08-06T14:25:10;7.53;;;3.80;;
34242;SDS011;20504;43.214;27.920;2023-08-06T14:27:35;6.90;;;3.70;;
34242;SDS011;20504;43.214;27.920;2023-08-06T14:30:01;5.25;;;3.75;;
34242;SDS011;20504;43.214;27.920;2023-08-06T14:32:28;7.15;;;3.53;;
34242;SDS011;20504;43.214;27.920;2023-08-06T14:34:53;8.30;;;3.97;;
34242;SDS011;20504;43.214;27.920;2023-08-06T14:37:19;7.30;;;3.72;;
34242;SDS011;20504;43.214;27.920;2023-08-06T14:39:44;6.70;;;3.70;;
34242;SDS011;20504;43.214;27.920;2023-08-06T14:42:10;7.10;;;4.28;;
34242;SDS011;20504;43.214;27.920;2023-08-06T14:44:36;6.32;;;4.00;;
34242;SDS011;20504;43.214;27.920;2023-08-06T14:47:01;3.72;;;3.08;;
34242;SDS011;20504;43.214;27.920;2023-08-06T14:49:28;6.97;;;4.10;;
34242;SDS011;20504;43.214;27.920;2023-08-06T14:51:53;5.90;;;3.50;;
34242;SDS011;20504;43.214;27.920;2023-08-06T14:54:20;6.25;;;3.55;;
34242;SDS011;20504;43.214;27.920;2023-08-06T14:56:46;8.35;;;3.60;;